Latest Weather Observations for Naracoorte

IDS60801

Issued at 7:01 pm CST Wednesday 27 July 2016 (issued every 30 minutes, with the page automatically refreshed every 10 minutes)

About weather observations | Map of weather stations | Latest weather observations for SA | Other Formats
Station Details ID: 026099 Name: NARACOORTE AERODROME Lat: -36.98 Lon: 140.73 Height: 49.72 m
Data from the previous 72 hours. | See also: Recent months at Naracoorte
Date/Time
CST
Temp
°C
App
Temp
°C
Dew
Point
°C
Rel
Hum
%
Delta-T
°C
Wind Press
QNH
hPa
Press
MSL
hPa
Rain since
9am
mm
Dir  Spd
km/h
Gust
km/h
Spd
kts
Gust
kts
27/07:00pm 9.4 6.8 7.7 89 0.8 NW 11 15 6 8 1023.8 1023.9 0.0
27/06:30pm 9.4 5.1 7.7 89 0.8 WNW 20 28 11 15 1023.6 1023.7 0.0
27/06:20pm 9.5 3.6 7.6 88 0.9 W 28 35 15 19 1023.5 1023.6 0.0
27/06:00pm 9.5 6.5 7.8 89 0.8 NW 13 17 7 9 1023.2 1023.3 0.0
27/05:30pm 9.0 6.3 7.3 89 0.8 NW 11 13 6 7 1022.7 1022.8 0.0
27/05:00pm 9.6 6.6 7.9 89 0.8 W 13 17 7 9 1022.6 1022.7 0.0
27/04:30pm 10.4 3.6 6.7 78 1.7 W 32 39 17 21 1022.6 1022.7 0.0
27/04:00pm 11.4 6.7 5.9 69 2.6 WSW 20 24 11 13 1022.1 1022.2 0.0
27/03:30pm 11.2 6.2 6.3 72 2.3 W 22 30 12 16 1022.1 1022.2 0.0
27/03:00pm 11.4 6.7 5.9 69 2.6 WSW 20 28 11 15 1021.7 1021.8 0.0
27/02:30pm 11.2 4.3 6.3 72 2.3 W 32 43 17 23 1021.5 1021.6 0.0
27/02:00pm 12.6 6.6 5.3 61 3.4 WSW 26 33 14 18 1020.9 1021.0 0.0
27/01:30pm 11.3 4.9 5.2 66 2.8 WSW 28 37 15 20 1020.7 1020.8 0.0
27/01:00pm 12.6 5.8 5.3 61 3.4 WSW 30 37 16 20 1020.5 1020.6 0.0
27/12:30pm 11.8 5.9 5.7 66 2.8 SW 26 37 14 20 1020.5 1020.6 0.0
27/12:00pm 11.2 4.9 5.5 68 2.6 WSW 28 33 15 18 1020.5 1020.6 0.0
27/11:30am 11.1 5.5 5.6 69 2.5 SW 24 30 13 16 1020.6 1020.7 0.0
27/11:00am 10.8 5.1 6.7 76 1.9 SW 26 33 14 18 1020.4 1020.5 0.0
27/10:30am 10.2 5.8 6.4 77 1.8 SW 19 26 10 14 1020.1 1020.1 0.0
27/10:00am 9.5 4.8 6.2 80 1.5 SW 20 24 11 13 1019.8 1019.8 0.0
27/09:30am 9.0 4.6 6.4 84 1.2 SW 19 22 10 12 1019.3 1019.3 0.0
27/09:00am 8.3 3.8 6.3 87 0.9 SW 19 26 10 14 1019.0 1019.0 5.6
27/08:30am 7.9 3.3 5.5 85 1.1 SW 19 22 10 12 1018.3 1018.3 5.6
27/08:00am 7.4 3.2 5.7 89 0.8 WSW 17 22 9 12 1017.7 1017.7 5.6
27/07:30am 6.1 2.4 4.7 91 0.6 WSW 13 15 7 8 1017.3 1017.3 5.6
27/07:00am 6.6 2.2 4.8 88 0.8 SW 17 19 9 10 1016.4 1016.5 5.6
27/06:30am 6.7 1.7 4.7 87 0.9 SW 20 26 11 14 1015.8 1015.9 5.6
27/06:00am 7.1 2.2 4.9 86 1.0 SW 20 22 11 12 1015.0 1015.1 5.6
27/05:30am 7.8 3.0 5.8 87 0.9 SW 20 28 11 15 1014.2 1014.3 5.6
27/05:00am 8.3 2.9 6.3 87 0.9 SW 24 30 13 16 1013.3 1013.4 5.6
27/04:30am 9.0 2.7 7.3 89 0.8 SW 30 37 16 20 1012.2 1012.3 5.6
27/04:00am 9.3 3.9 8.2 93 0.5 SW 26 35 14 19 1011.3 1011.4 5.6
27/03:30am 9.2 3.8 8.1 93 0.5 WSW 26 37 14 20 1010.6 1010.7 5.4
27/03:00am 7.6 4.0 6.9 95 0.3 W 15 17 8 9 1010.1 1010.2 5.4
27/02:30am 7.8 3.4 6.7 93 0.5 W 19 20 10 11 1009.5 1009.6 5.4
27/02:00am 8.5 4.1 7.4 93 0.5 W 20 22 11 12 1008.9 1009.0 5.4
27/01:30am 8.3 4.5 7.4 94 0.4 WNW 17 24 9 13 1008.5 1008.6 5.4
27/01:00am 8.0 3.7 6.8 92 0.6 W 19 22 10 12 1007.8 1007.9 5.2
27/12:30am 8.9 4.1 7.4 90 0.7 W 22 30 12 16 1007.5 1007.6 5.2
27/12:00am 7.8 3.7 6.4 91 0.6 W 17 19 9 10 1007.1 1007.2 5.2
 
Date/Time
CST
Temp
°C
App
Temp
°C
Dew
Point
°C
Rel
Hum
%
Delta-T
°C
Wind Press
QNH
hPa
Press
MSL
hPa
Rain since
9am
mm
Dir  Spd
km/h
Gust
km/h
Spd
kts
Gust
kts
26/11:30pm 9.1 4.1 7.9 92 0.6 W 24 33 13 18 1006.6 1006.7 5.2
26/11:00pm 9.1 3.3 7.9 92 0.6 WSW 28 39 15 21 1005.9 1006.0 5.2
26/10:30pm 9.1 3.7 8.2 94 0.4 W 26 32 14 17 1005.4 1005.5 4.8
26/10:00pm 8.7 4.4 7.8 94 0.4 NW 20 28 11 15 1004.7 1004.8 4.6
26/09:30pm 8.5 2.9 7.3 92 0.6 NW 26 35 14 19 1004.2 1004.3 4.2
26/09:00pm 8.3 3.1 7.4 94 0.4 NNW 24 33 13 18 1003.7 1003.8 4.2
26/08:30pm 8.0 2.7 6.6 91 0.6 NNW 24 35 13 19 1003.8 1003.9 4.0
26/08:00pm 8.0 2.3 6.6 91 0.6 NNW 26 37 14 20 1003.7 1003.8 3.8
26/07:30pm 8.4 2.4 7.0 91 0.7 NNW 28 41 15 22 1003.8 1003.9 3.8
26/07:11pm 8.4 1.6 7.0 91 0.7 NNW 32 50 17 27 1003.9 1004.0 3.4
26/07:00pm 8.6 1.3 7.1 90 0.7 NNW 35 52 19 28 1004.0 1004.1 2.8
26/06:30pm 8.7 2.7 7.0 89 0.8 NNW 28 37 15 20 1004.0 1004.1 2.4
26/06:00pm 9.2 3.5 6.6 84 1.2 N 26 37 14 20 1003.9 1004.0 2.2
26/05:30pm 9.1 4.2 6.7 85 1.1 N 22 35 12 19 1004.0 1004.1 2.0
26/05:00pm 9.5 2.4 6.6 82 1.4 NW 33 46 18 25 1004.7 1004.8 1.8
26/04:30pm 9.6 2.1 6.5 81 1.5 NNW 35 46 19 25 1005.0 1005.1 1.2
26/04:19pm 9.8 2.7 6.5 80 1.5 NNW 33 52 18 28 1005.1 1005.2 1.2
26/04:00pm 9.7 3.7 7.0 83 1.3 NNW 28 41 15 22 1005.5 1005.6 1.0
26/03:30pm 9.4 2.7 7.2 86 1.0 NNW 32 46 17 25 1006.1 1006.2 0.8
26/03:13pm 10.2 3.7 6.7 79 1.6 N 30 48 16 26 1006.2 1006.3 0.4
26/03:00pm 9.9 4.3 7.3 84 1.2 N 26 39 14 21 1006.5 1006.6 0.4
26/02:30pm 10.0 4.0 7.1 82 1.4 N 28 39 15 21 1007.3 1007.4 0.4
26/02:00pm 9.5 2.6 7.3 86 1.0 NNW 33 43 18 23 1007.8 1007.9 0.4
26/01:37pm 9.5 2.6 7.3 86 1.0 NNW 33 52 18 28 1008.4 1008.5 0.4
26/01:30pm 9.9 2.5 6.6 80 1.5 NNW 35 48 19 26 1008.5 1008.6 0.2
26/01:00pm 9.6 3.5 6.7 82 1.4 N 28 41 15 22 1009.0 1009.1 0.0
26/12:30pm 9.7 4.4 6.6 81 1.5 N 24 33 13 18 1009.8 1009.9 0.0
26/12:00pm 9.2 4.2 6.5 83 1.3 NNW 22 30 12 16 1010.6 1010.7 0.0
26/11:30am 9.0 3.7 6.6 85 1.1 NNW 24 32 13 17 1011.4 1011.5 0.0
26/11:00am 8.6 3.9 6.1 84 1.1 N 20 30 11 16 1011.8 1011.9 0.0
26/10:30am 8.6 4.1 6.1 84 1.1 N 19 24 10 13 1012.1 1012.2 0.0
26/10:00am 7.9 3.6 5.4 84 1.1 N 17 24 9 13 1012.4 1012.5 0.0
26/09:30am 7.2 3.3 5.3 88 0.8 N 15 22 8 12 1012.5 1012.6 0.0
26/09:00am 6.9 2.1 4.7 86 1.0 NNW 19 26 10 14 1012.8 1012.9 8.4
26/08:30am 6.4 2.7 4.6 88 0.8 NW 13 17 7 9 1012.9 1013.0 8.4
26/08:00am 5.9 2.1 4.1 88 0.8 NNW 13 17 7 9 1012.9 1013.0 8.4
26/07:30am 4.8 1.3 3.3 90 0.6 N 11 17 6 9 1012.5 1012.6 8.4
26/07:00am 4.8 -0.5 3.1 89 0.7 NW 20 26 11 14 1012.6 1012.7 8.4
26/06:30am 3.5 -0.2 2.3 92 0.5 NNW 11 15 6 8 1012.6 1012.7 8.4
26/06:00am 3.9 -0.1 2.6 91 0.5 NNW 13 17 7 9 1012.2 1012.3 8.4
26/05:30am 3.9 -1.2 2.9 93 0.4 N 19 22 10 12 1011.9 1012.0 8.4
26/05:00am 3.5 -0.6 2.3 92 0.5 N 13 17 7 9 1011.8 1011.9 8.4
26/04:30am 4.4 0.1 3.2 92 0.5 NW 15 19 8 10 1011.8 1011.9 8.4
26/04:00am 4.5 0.2 3.0 90 0.6 WNW 15 19 8 10 1011.9 1012.0 8.4
26/03:30am 4.9 0.7 3.6 91 0.5 NW 15 17 8 9 1011.9 1012.0 8.2
26/03:00am 5.3 0.8 4.0 91 0.6 NW 17 20 9 11 1012.0 1012.1 8.2
26/02:30am 5.7 1.2 4.3 91 0.6 NW 17 28 9 15 1012.6 1012.7 8.2
26/02:00am 5.3 0.7 3.8 90 0.6 NW 17 19 9 10 1012.5 1012.6 8.0
26/01:30am 5.4 1.3 4.2 92 0.5 NNW 15 19 8 10 1012.6 1012.7 8.0
26/01:00am 5.9 1.1 4.4 90 0.6 NW 19 24 10 13 1012.2 1012.3 8.0
26/12:30am 5.3 1.9 4.1 92 0.5 WNW 11 17 6 9 1012.6 1012.7 7.6
26/12:00am 5.3 0.7 3.6 89 0.7 WNW 17 20 9 11 1012.2 1012.3 7.0
 
Date/Time
CST
Temp
°C
App
Temp
°C
Dew
Point
°C
Rel
Hum
%
Delta-T
°C
Wind Press
QNH
hPa
Press
MSL
hPa
Rain since
9am
mm
Dir  Spd
km/h
Gust
km/h
Spd
kts
Gust
kts
25/11:30pm 6.5 -1.4 4.2 85 1.0 W 35 43 19 23 1012.1 1012.2 7.0
25/11:18pm 6.9 0.7 4.4 84 1.1 WNW 26 54 14 29 1012.4 1012.5 6.6
25/11:00pm 5.8 1.1 3.3 84 1.0 WNW 17 20 9 11 1011.7 1011.8 6.4
25/10:30pm 6.2 0.6 3.5 83 1.1 WNW 22 28 12 15 1011.7 1011.8 6.4
25/10:00pm 5.8 0.6 3.3 84 1.0 NW 20 26 11 14 1011.3 1011.4 6.4
25/09:30pm 5.6 0.4 2.6 81 1.2 WNW 19 24 10 13 1011.3 1011.4 6.4
25/09:00pm 6.0 1.2 2.8 80 1.3 W 17 24 9 13 1011.1 1011.2 6.4
25/08:30pm 6.5 0.8 3.1 79 1.4 WNW 22 30 12 16 1010.8 1010.9 6.4
25/08:00pm 6.1 0.7 2.6 78 1.4 W 20 28 11 15 1010.6 1010.7 6.4
25/07:30pm 6.5 2.3 3.8 83 1.2 WNW 15 19 8 10 1010.1 1010.2 6.4
25/07:00pm 5.6 1.7 3.3 85 1.0 WSW 13 17 7 9 1009.7 1009.8 6.4
25/06:30pm 7.5 2.3 3.7 77 1.6 W 20 24 11 13 1008.9 1009.0 6.4
25/06:00pm 8.1 1.8 3.6 73 1.9 WNW 26 33 14 18 1008.3 1008.4 6.4
25/05:30pm 8.6 0.9 3.4 70 2.2 W 33 43 18 23 1007.9 1008.0 6.4
25/05:09pm 9.5 0.8 4.1 69 2.4 W 39 57 21 31 1007.5 1007.6 6.4
25/05:00pm 9.5 0.8 4.3 70 2.3 W 39 54 21 29 1007.4 1007.5 6.4
25/04:30pm 10.0 1.6 5.4 73 2.1 W 39 52 21 28 1007.0 1007.1 6.4
25/04:00pm 9.9 2.2 7.3 84 1.2 W 37 48 20 26 1006.3 1006.4 6.4
25/03:30pm 9.6 2.8 7.9 89 0.8 W 33 44 18 24 1006.1 1006.2 6.2
25/03:00pm 9.3 2.2 8.2 93 0.5 W 35 46 19 25 1006.0 1006.1 6.2
25/02:30pm 8.6 -0.7 7.7 94 0.4 WNW 46 57 25 31 1005.8 1005.9 5.8
25/02:14pm 10.2 2.2 9.1 93 0.5 WNW 41 76 22 41 1005.6 1005.7 4.0
25/02:11pm 10.7 2.8 9.5 92 0.6 NW 41 59 22 32 1004.5 1004.6 2.2
25/02:00pm 11.0 2.1 9.3 89 0.9 NW 46 61 25 33 1004.2 1004.3 1.0
25/01:30pm 12.0 2.9 8.5 79 1.7 NW 46 65 25 35 1004.4 1004.5 0.2
25/01:00pm 11.6 1.9 9.2 85 1.2 NW 50 76 27 41 1005.1 1005.2 0.0
25/12:32pm 12.5 4.0 8.4 76 2.0 NW 43 63 23 34 1005.5 1005.6 0.0
25/12:30pm 12.5 4.4 8.6 77 2.0 NW 41 57 22 31 1005.5 1005.6 0.0
25/12:20pm 12.5 5.6 9.0 79 1.8 NW 35 56 19 30 1005.9 1006.0 0.0
25/12:00pm 12.0 5.6 9.4 84 1.3 NW 33 46 18 25 1006.7 1006.8 0.0
25/11:30am 11.8 5.7 9.7 87 1.1 NNW 32 46 17 25 1007.4 1007.5 0.0
25/11:00am 10.9 4.0 9.0 88 0.9 NNW 35 46 19 25 1008.6 1008.7 0.0
25/10:30am 10.4 4.8 8.8 90 0.8 NNW 28 43 15 23 1008.8 1008.9 0.0
25/10:00am 10.4 5.1 8.3 87 1.0 NNW 26 37 14 20 1009.3 1009.4 0.0
25/09:30am 9.8 5.1 7.7 87 1.0 NNW 22 32 12 17 1009.5 1009.6 0.0
25/09:00am 8.1 3.4 6.2 88 0.9 NNW 20 28 11 15 1009.7 1009.8 7.4
25/08:30am 7.7 3.5 5.5 86 1.0 NNW 17 22 9 12 1010.1 1010.2 7.4
25/08:00am 6.6 2.2 4.9 89 0.7 NNW 17 22 9 12 1010.1 1010.2 7.4
25/07:30am 5.8 1.7 4.3 90 0.6 NNW 15 20 8 11 1010.4 1010.5 7.4
25/07:00am 5.6 1.5 4.4 92 0.5 NNW 15 20 8 11 1010.3 1010.4 7.4
25/06:30am 5.1 1.6 3.6 90 0.6 NNW 11 13 6 7 1010.2 1010.3 7.4
25/06:00am 5.8 1.7 4.1 89 0.7 NW 15 17 8 9 1010.3 1010.4 7.4
25/05:30am 6.0 2.3 4.6 91 0.6 NW 13 15 7 8 1010.2 1010.3 7.4
25/05:00am 6.3 1.9 4.9 91 0.6 NW 17 20 9 11 1010.2 1010.3 7.4
25/04:30am 6.8 2.5 5.1 89 0.8 WNW 17 19 9 10 1009.9 1010.0 7.4
25/04:00am 7.8 2.7 6.1 89 0.8 W 22 30 12 16 1009.5 1009.6 7.4
25/03:30am 7.6 3.6 6.5 93 0.5 WNW 17 20 9 11 1009.3 1009.4 7.4
25/03:00am 7.8 4.2 6.7 93 0.5 W 15 17 8 9 1009.0 1009.1 7.4
25/02:30am 8.5 3.7 7.3 92 0.6 W 22 26 12 14 1008.9 1009.0 7.4
25/02:00am 8.5 4.1 7.4 93 0.5 W 20 30 11 16 1008.6 1008.7 7.2
25/01:30am 8.3 3.5 7.4 94 0.4 W 22 28 12 15 1008.0 1008.1 7.2
25/01:00am 6.9 2.8 6.3 96 0.3 NW 17 20 9 11 1007.3 1007.4 7.2
25/12:30am 6.7 2.0 6.0 95 0.3 NW 20 24 11 13 1006.8 1006.9 7.2
25/12:00am 6.5 2.3 5.5 93 0.4 NNW 17 22 9 12 1006.6 1006.7 7.2
 
Date/Time
CST
Temp
°C
App
Temp
°C
Dew
Point
°C
Rel
Hum
%
Delta-T
°C
Wind Press
QNH
hPa
Press
MSL
hPa
Rain since
9am
mm
Dir  Spd
km/h
Gust
km/h
Spd
kts
Gust
kts
24/11:30pm 6.7 2.1 5.5 92 0.5 NW 19 24 10 13 1006.3 1006.4 7.2
24/11:00pm 6.0 1.7 5.1 94 0.4 NNW 17 22 9 12 1006.1 1006.2 7.2
24/10:30pm 5.6 0.7 4.9 95 0.3 NNW 20 24 11 13 1005.8 1005.9 7.2
24/10:00pm 5.7 1.0 5.1 96 0.3 NNW 19 24 10 13 1005.7 1005.8 7.2
24/09:30pm 5.0 0.5 4.4 96 0.3 N 17 20 9 11 1005.6 1005.7 7.2
24/09:00pm 5.2 1.1 4.5 95 0.3 NNW 15 19 8 10 1005.7 1005.8 7.2
24/08:30pm 5.6 1.9 4.7 94 0.4 NNW 13 17 7 9 1005.4 1005.5 7.2
24/08:00pm 5.5 2.2 4.3 92 0.5 NNW 11 15 6 8 1004.9 1005.0 7.2
24/07:30pm 6.4 2.8 5.0 91 0.6 NNW 13 17 7 9 1004.3 1004.4 7.2

Other Formats:

Comma delimited format used in spreadsheet applications
http://www.bom.gov.au/fwo/IDS60801/IDS60801.94820.axf

JavaScript Object Notation format (JSON) in row-major order
http://www.bom.gov.au/fwo/IDS60801/IDS60801.94820.json